sensor_id;sensor_type;location;lat;lon;timestamp;P1;durP1;ratioP1;P2;durP2;ratioP2
77384;SDS011;66443;49.122;8.346;2023-01-29T00:01:40;10.37;;;7.23;;
77384;SDS011;66443;49.122;8.346;2023-01-29T00:04:05;8.57;;;7.60;;
77384;SDS011;66443;49.122;8.346;2023-01-29T00:06:30;10.87;;;8.63;;
77384;SDS011;66443;49.122;8.346;2023-01-29T00:08:56;9.20;;;8.30;;
77384;SDS011;66443;49.122;8.346;2023-01-29T00:11:21;7.60;;;5.93;;
77384;SDS011;66443;49.122;8.346;2023-01-29T00:13:48;5.10;;;4.60;;
77384;SDS011;66443;49.122;8.346;2023-01-29T00:16:13;5.67;;;5.10;;
77384;SDS011;66443;49.122;8.346;2023-01-29T00:18:38;5.80;;;4.90;;
77384;SDS011;66443;49.122;8.346;2023-01-29T00:21:08;7.10;;;5.80;;
77384;SDS011;66443;49.122;8.346;2023-01-29T00:23:33;8.00;;;5.33;;
77384;SDS011;66443;49.122;8.346;2023-01-29T00:25:58;5.73;;;5.13;;
77384;SDS011;66443;49.122;8.346;2023-01-29T00:28:24;5.77;;;5.27;;
77384;SDS011;66443;49.122;8.346;2023-01-29T00:30:49;6.65;;;5.95;;
77384;SDS011;66443;49.122;8.346;2023-01-29T00:33:14;6.37;;;5.47;;
77384;SDS011;66443;49.122;8.346;2023-01-29T00:35:39;5.87;;;4.77;;
77384;SDS011;66443;49.122;8.346;2023-01-29T00:38:05;7.57;;;5.87;;
77384;SDS011;66443;49.122;8.346;2023-01-29T00:40:30;6.20;;;5.27;;
77384;SDS011;66443;49.122;8.346;2023-01-29T00:43:15;6.20;;;5.60;;
77384;SDS011;66443;49.122;8.346;2023-01-29T00:45:59;6.27;;;5.30;;
77384;SDS011;66443;49.122;8.346;2023-01-29T00:48:24;5.77;;;5.00;;
77384;SDS011;66443;49.122;8.346;2023-01-29T00:50:50;5.53;;;5.03;;
77384;SDS011;66443;49.122;8.346;2023-01-29T00:53:15;8.80;;;5.30;;
77384;SDS011;66443;49.122;8.346;2023-01-29T00:55:40;9.23;;;5.93;;
77384;SDS011;66443;49.122;8.346;2023-01-29T00:58:05;6.33;;;4.90;;
77384;SDS011;66443;49.122;8.346;2023-01-29T01:00:30;5.63;;;5.07;;
77384;SDS011;66443;49.122;8.346;2023-01-29T01:02:55;7.07;;;5.67;;
77384;SDS011;66443;49.122;8.346;2023-01-29T01:05:30;8.50;;;5.73;;
77384;SDS011;66443;49.122;8.346;2023-01-29T01:07:55;9.23;;;6.50;;
77384;SDS011;66443;49.122;8.346;2023-01-29T01:10:26;6.40;;;5.77;;
77384;SDS011;66443;49.122;8.346;2023-01-29T01:15:17;7.73;;;6.50;;
77384;SDS011;66443;49.122;8.346;2023-01-29T01:17:43;7.23;;;6.27;;
77384;SDS011;66443;49.122;8.346;2023-01-29T01:20:08;7.27;;;6.27;;
77384;SDS011;66443;49.122;8.346;2023-01-29T01:22:34;9.33;;;6.10;;
77384;SDS011;66443;49.122;8.346;2023-01-29T01:24:59;8.33;;;6.87;;
77384;SDS011;66443;49.122;8.346;2023-01-29T01:27:25;7.47;;;6.17;;
77384;SDS011;66443;49.122;8.346;2023-01-29T01:29:50;8.07;;;6.30;;
77384;SDS011;66443;49.122;8.346;2023-01-29T01:32:15;8.57;;;6.70;;
77384;SDS011;66443;49.122;8.346;2023-01-29T01:34:40;8.40;;;7.60;;
77384;SDS011;66443;49.122;8.346;2023-01-29T01:37:05;9.77;;;6.87;;
77384;SDS011;66443;49.122;8.346;2023-01-29T01:39:30;13.57;;;8.53;;
77384;SDS011;66443;49.122;8.346;2023-01-29T01:41:56;9.47;;;7.57;;
77384;SDS011;66443;49.122;8.346;2023-01-29T01:47:05;9.17;;;8.13;;
77384;SDS011;66443;49.122;8.346;2023-01-29T01:49:30;10.67;;;7.23;;
77384;SDS011;66443;49.122;8.346;2023-01-29T01:51:56;9.40;;;7.77;;
77384;SDS011;66443;49.122;8.346;2023-01-29T01:54:25;9.50;;;7.53;;
77384;SDS011;66443;49.122;8.346;2023-01-29T01:56:56;8.33;;;7.07;;
77384;SDS011;66443;49.122;8.346;2023-01-29T01:59:29;9.37;;;6.93;;
77384;SDS011;66443;49.122;8.346;2023-01-29T02:01:56;17.00;;;9.70;;
77384;SDS011;66443;49.122;8.346;2023-01-29T02:04:22;13.07;;;8.23;;
77384;SDS011;66443;49.122;8.346;2023-01-29T02:07:09;12.83;;;8.33;;
77384;SDS011;66443;49.122;8.346;2023-01-29T02:10:08;9.70;;;8.30;;
77384;SDS011;66443;49.122;8.346;2023-01-29T02:12:35;13.17;;;8.80;;
77384;SDS011;66443;49.122;8.346;2023-01-29T02:15:00;15.50;;;9.33;;
77384;SDS011;66443;49.122;8.346;2023-01-29T02:17:26;12.27;;;8.43;;
77384;SDS011;66443;49.122;8.346;2023-01-29T02:19:54;9.70;;;7.67;;
77384;SDS011;66443;49.122;8.346;2023-01-29T02:25:08;9.27;;;7.07;;
77384;SDS011;66443;49.122;8.346;2023-01-29T02:27:57;14.97;;;9.70;;
77384;SDS011;66443;49.122;8.346;2023-01-29T02:30:33;9.33;;;7.57;;
77384;SDS011;66443;49.122;8.346;2023-01-29T02:33:24;9.23;;;6.50;;
77384;SDS011;66443;49.122;8.346;2023-01-29T02:35:58;8.47;;;7.13;;
77384;SDS011;66443;49.122;8.346;2023-01-29T02:38:29;12.83;;;8.17;;
77384;SDS011;66443;49.122;8.346;2023-01-29T02:41:00;9.10;;;7.57;;
77384;SDS011;66443;49.122;8.346;2023-01-29T02:45:56;8.57;;;6.90;;
77384;SDS011;66443;49.122;8.346;2023-01-29T02:48:24;9.07;;;7.73;;
77384;SDS011;66443;49.122;8.346;2023-01-29T02:50:54;14.57;;;7.93;;
77384;SDS011;66443;49.122;8.346;2023-01-29T02:53:26;11.43;;;7.37;;
77384;SDS011;66443;49.122;8.346;2023-01-29T02:55:59;9.10;;;7.67;;
77384;SDS011;66443;49.122;8.346;2023-01-29T02:58:30;7.70;;;6.27;;
77384;SDS011;66443;49.122;8.346;2023-01-29T03:00:59;10.10;;;6.87;;
77384;SDS011;66443;49.122;8.346;2023-01-29T03:03:27;9.20;;;7.97;;
77384;SDS011;66443;49.122;8.346;2023-01-29T03:05:57;9.57;;;6.90;;
77384;SDS011;66443;49.122;8.346;2023-01-29T03:08:31;9.80;;;6.47;;
77384;SDS011;66443;49.122;8.346;2023-01-29T03:11:07;11.90;;;7.03;;
77384;SDS011;66443;49.122;8.346;2023-01-29T03:13:44;8.47;;;6.77;;
77384;SDS011;66443;49.122;8.346;2023-01-29T03:16:33;9.83;;;7.30;;
77384;SDS011;66443;49.122;8.346;2023-01-29T03:19:11;10.70;;;8.03;;
77384;SDS011;66443;49.122;8.346;2023-01-29T03:21:42;8.70;;;7.63;;
77384;SDS011;66443;49.122;8.346;2023-01-29T03:24:17;11.03;;;8.00;;
77384;SDS011;66443;49.122;8.346;2023-01-29T03:27:03;9.27;;;7.23;;
77384;SDS011;66443;49.122;8.346;2023-01-29T03:29:49;10.37;;;7.87;;
77384;SDS011;66443;49.122;8.346;2023-01-29T03:32:34;8.70;;;7.27;;
77384;SDS011;66443;49.122;8.346;2023-01-29T03:35:02;9.83;;;8.83;;
77384;SDS011;66443;49.122;8.346;2023-01-29T03:37:31;11.10;;;8.53;;
77384;SDS011;66443;49.122;8.346;2023-01-29T03:39:58;13.13;;;7.67;;
77384;SDS011;66443;49.122;8.346;2023-01-29T03:42:43;9.13;;;7.07;;
77384;SDS011;66443;49.122;8.346;2023-01-29T03:58:23;9.33;;;7.93;;
77384;SDS011;66443;49.122;8.346;2023-01-29T04:01:00;10.87;;;8.63;;
77384;SDS011;66443;49.122;8.346;2023-01-29T04:03:31;9.80;;;7.33;;
77384;SDS011;66443;49.122;8.346;2023-01-29T04:06:06;10.20;;;7.93;;
77384;SDS011;66443;49.122;8.346;2023-01-29T04:08:35;13.13;;;8.67;;
77384;SDS011;66443;49.122;8.346;2023-01-29T04:11:03;12.27;;;8.13;;
77384;SDS011;66443;49.122;8.346;2023-01-29T04:13:30;11.87;;;8.57;;
77384;SDS011;66443;49.122;8.346;2023-01-29T04:15:57;10.13;;;8.10;;
77384;SDS011;66443;49.122;8.346;2023-01-29T04:18:24;9.30;;;8.07;;
77384;SDS011;66443;49.122;8.346;2023-01-29T04:20:49;11.00;;;8.60;;
77384;SDS011;66443;49.122;8.346;2023-01-29T04:23:22;13.10;;;7.87;;
77384;SDS011;66443;49.122;8.346;2023-01-29T04:28:53;10.57;;;7.50;;
77384;SDS011;66443;49.122;8.346;2023-01-29T04:31:22;9.43;;;6.70;;
77384;SDS011;66443;49.122;8.346;2023-01-29T04:39:24;8.07;;;7.27;;
77384;SDS011;66443;49.122;8.346;2023-01-29T04:44:15;9.30;;;7.30;;
77384;SDS011;66443;49.122;8.346;2023-01-29T04:49:31;10.25;;;6.95;;
77384;SDS011;66443;49.122;8.346;2023-01-29T04:51:57;8.57;;;7.07;;
77384;SDS011;66443;49.122;8.346;2023-01-29T04:54:32;10.27;;;8.30;;
77384;SDS011;66443;49.122;8.346;2023-01-29T04:59:28;11.23;;;8.00;;
77384;SDS011;66443;49.122;8.346;2023-01-29T05:01:54;10.50;;;8.47;;
77384;SDS011;66443;49.122;8.346;2023-01-29T05:04:19;10.43;;;7.67;;
77384;SDS011;66443;49.122;8.346;2023-01-29T05:06:45;9.63;;;8.20;;
77384;SDS011;66443;49.122;8.346;2023-01-29T05:09:12;12.07;;;8.83;;
77384;SDS011;66443;49.122;8.346;2023-01-29T05:11:38;11.67;;;8.47;;
77384;SDS011;66443;49.122;8.346;2023-01-29T05:14:03;13.57;;;8.47;;
77384;SDS011;66443;49.122;8.346;2023-01-29T05:16:32;10.10;;;8.17;;
77384;SDS011;66443;49.122;8.346;2023-01-29T05:19:07;12.17;;;8.70;;
77384;SDS011;66443;49.122;8.346;2023-01-29T05:21:33;10.53;;;8.20;;
77384;SDS011;66443;49.122;8.346;2023-01-29T05:24:05;10.37;;;8.20;;
77384;SDS011;66443;49.122;8.346;2023-01-29T05:26:30;11.70;;;8.67;;
77384;SDS011;66443;49.122;8.346;2023-01-29T05:29:14;10.87;;;8.43;;
77384;SDS011;66443;49.122;8.346;2023-01-29T05:31:42;10.50;;;8.73;;
77384;SDS011;66443;49.122;8.346;2023-01-29T05:34:07;11.00;;;8.70;;
77384;SDS011;66443;49.122;8.346;2023-01-29T05:36:32;9.83;;;8.37;;
77384;SDS011;66443;49.122;8.346;2023-01-29T05:38:58;12.20;;;9.37;;
77384;SDS011;66443;49.122;8.346;2023-01-29T05:41:23;13.23;;;9.30;;
77384;SDS011;66443;49.122;8.346;2023-01-29T05:43:48;13.03;;;9.90;;
77384;SDS011;66443;49.122;8.346;2023-01-29T05:46:13;11.73;;;9.03;;
77384;SDS011;66443;49.122;8.346;2023-01-29T05:48:38;12.83;;;10.03;;
77384;SDS011;66443;49.122;8.346;2023-01-29T05:51:03;12.25;;;9.50;;
77384;SDS011;66443;49.122;8.346;2023-01-29T05:53:29;13.60;;;8.83;;
77384;SDS011;66443;49.122;8.346;2023-01-29T05:55:54;10.40;;;8.50;;
77384;SDS011;66443;49.122;8.346;2023-01-29T05:58:21;12.17;;;8.90;;
77384;SDS011;66443;49.122;8.346;2023-01-29T06:00:46;10.17;;;8.53;;
77384;SDS011;66443;49.122;8.346;2023-01-29T06:03:11;13.50;;;9.97;;
77384;SDS011;66443;49.122;8.346;2023-01-29T06:05:37;9.43;;;8.17;;
77384;SDS011;66443;49.122;8.346;2023-01-29T06:08:02;10.13;;;7.80;;
77384;SDS011;66443;49.122;8.346;2023-01-29T06:10:28;10.47;;;8.17;;
77384;SDS011;66443;49.122;8.346;2023-01-29T06:12:53;10.53;;;7.43;;
77384;SDS011;66443;49.122;8.346;2023-01-29T06:15:18;11.23;;;8.33;;
77384;SDS011;66443;49.122;8.346;2023-01-29T06:17:43;12.50;;;8.97;;
77384;SDS011;66443;49.122;8.346;2023-01-29T06:20:09;13.00;;;9.67;;
77384;SDS011;66443;49.122;8.346;2023-01-29T06:22:34;10.23;;;8.53;;
77384;SDS011;66443;49.122;8.346;2023-01-29T06:24:59;10.17;;;8.57;;
77384;SDS011;66443;49.122;8.346;2023-01-29T06:27:24;11.80;;;9.80;;
77384;SDS011;66443;49.122;8.346;2023-01-29T06:29:50;9.87;;;8.87;;
77384;SDS011;66443;49.122;8.346;2023-01-29T06:32:15;10.53;;;7.60;;
77384;SDS011;66443;49.122;8.346;2023-01-29T06:34:40;9.80;;;7.77;;
77384;SDS011;66443;49.122;8.346;2023-01-29T06:37:05;11.43;;;8.50;;
77384;SDS011;66443;49.122;8.346;2023-01-29T06:39:31;12.97;;;8.00;;
77384;SDS011;66443;49.122;8.346;2023-01-29T06:41:57;8.77;;;7.47;;
77384;SDS011;66443;49.122;8.346;2023-01-29T06:44:22;8.50;;;7.70;;
77384;SDS011;66443;49.122;8.346;2023-01-29T06:46:47;11.17;;;8.60;;
77384;SDS011;66443;49.122;8.346;2023-01-29T06:49:12;9.70;;;8.10;;
77384;SDS011;66443;49.122;8.346;2023-01-29T06:51:38;11.80;;;7.77;;
77384;SDS011;66443;49.122;8.346;2023-01-29T06:54:03;13.20;;;9.67;;
77384;SDS011;66443;49.122;8.346;2023-01-29T06:56:28;12.13;;;8.77;;
77384;SDS011;66443;49.122;8.346;2023-01-29T06:58:53;10.73;;;8.60;;
77384;SDS011;66443;49.122;8.346;2023-01-29T07:01:19;8.90;;;7.77;;
77384;SDS011;66443;49.122;8.346;2023-01-29T07:03:47;10.93;;;9.43;;
77384;SDS011;66443;49.122;8.346;2023-01-29T07:06:12;10.70;;;9.07;;
77384;SDS011;66443;49.122;8.346;2023-01-29T07:08:38;12.30;;;9.27;;
77384;SDS011;66443;49.122;8.346;2023-01-29T07:11:03;10.10;;;9.07;;
77384;SDS011;66443;49.122;8.346;2023-01-29T07:13:28;12.60;;;9.43;;
77384;SDS011;66443;49.122;8.346;2023-01-29T07:15:57;12.17;;;8.87;;
77384;SDS011;66443;49.122;8.346;2023-01-29T07:18:22;15.17;;;9.97;;
77384;SDS011;66443;49.122;8.346;2023-01-29T07:20:47;12.77;;;10.50;;
77384;SDS011;66443;49.122;8.346;2023-01-29T07:23:13;11.90;;;8.77;;
77384;SDS011;66443;49.122;8.346;2023-01-29T07:25:38;16.03;;;10.20;;
77384;SDS011;66443;49.122;8.346;2023-01-29T07:28:04;25.23;;;15.93;;
77384;SDS011;66443;49.122;8.346;2023-01-29T07:30:29;18.07;;;11.60;;
77384;SDS011;66443;49.122;8.346;2023-01-29T07:32:54;13.27;;;10.17;;
77384;SDS011;66443;49.122;8.346;2023-01-29T07:35:19;13.10;;;9.33;;
77384;SDS011;66443;49.122;8.346;2023-01-29T07:37:47;15.70;;;10.67;;
77384;SDS011;66443;49.122;8.346;2023-01-29T07:40:13;19.00;;;10.67;;
77384;SDS011;66443;49.122;8.346;2023-01-29T07:42:38;14.73;;;10.07;;
77384;SDS011;66443;49.122;8.346;2023-01-29T07:45:08;13.67;;;9.47;;
77384;SDS011;66443;49.122;8.346;2023-01-29T07:47:33;17.13;;;9.53;;
77384;SDS011;66443;49.122;8.346;2023-01-29T07:49:59;10.57;;;9.03;;
77384;SDS011;66443;49.122;8.346;2023-01-29T07:52:24;13.17;;;9.20;;
77384;SDS011;66443;49.122;8.346;2023-01-29T07:54:49;11.77;;;8.80;;
77384;SDS011;66443;49.122;8.346;2023-01-29T07:57:14;13.00;;;9.57;;
77384;SDS011;66443;49.122;8.346;2023-01-29T07:59:39;10.67;;;8.83;;
77384;SDS011;66443;49.122;8.346;2023-01-29T08:02:05;14.33;;;8.93;;
77384;SDS011;66443;49.122;8.346;2023-01-29T08:04:30;12.27;;;9.03;;
77384;SDS011;66443;49.122;8.346;2023-01-29T08:06:55;14.30;;;10.50;;
77384;SDS011;66443;49.122;8.346;2023-01-29T08:09:20;47.77;;;21.40;;
77384;SDS011;66443;49.122;8.346;2023-01-29T08:11:45;21.90;;;12.23;;
77384;SDS011;66443;49.122;8.346;2023-01-29T08:14:10;16.80;;;11.17;;
77384;SDS011;66443;49.122;8.346;2023-01-29T08:16:36;19.07;;;10.23;;
77384;SDS011;66443;49.122;8.346;2023-01-29T08:19:01;14.27;;;10.67;;
77384;SDS011;66443;49.122;8.346;2023-01-29T08:21:26;17.87;;;10.10;;
77384;SDS011;66443;49.122;8.346;2023-01-29T08:23:51;12.23;;;9.93;;
77384;SDS011;66443;49.122;8.346;2023-01-29T08:26:17;13.77;;;10.17;;
77384;SDS011;66443;49.122;8.346;2023-01-29T08:28:42;15.90;;;10.07;;
77384;SDS011;66443;49.122;8.346;2023-01-29T08:31:17;21.73;;;14.20;;
77384;SDS011;66443;49.122;8.346;2023-01-29T08:33:44;24.03;;;14.70;;
77384;SDS011;66443;49.122;8.346;2023-01-29T08:36:09;18.63;;;13.37;;
77384;SDS011;66443;49.122;8.346;2023-01-29T08:38:34;12.07;;;9.90;;
77384;SDS011;66443;49.122;8.346;2023-01-29T08:41:00;14.33;;;10.43;;
77384;SDS011;66443;49.122;8.346;2023-01-29T08:43:25;11.07;;;9.37;;
77384;SDS011;66443;49.122;8.346;2023-01-29T08:45:50;13.87;;;10.30;;
77384;SDS011;66443;49.122;8.346;2023-01-29T08:48:15;13.83;;;10.30;;
77384;SDS011;66443;49.122;8.346;2023-01-29T08:50:41;12.37;;;10.20;;
77384;SDS011;66443;49.122;8.346;2023-01-29T08:53:06;12.67;;;9.50;;
77384;SDS011;66443;49.122;8.346;2023-01-29T08:55:33;13.13;;;8.57;;
77384;SDS011;66443;49.122;8.346;2023-01-29T08:57:58;10.27;;;9.13;;
77384;SDS011;66443;49.122;8.346;2023-01-29T09:00:24;10.10;;;8.40;;
77384;SDS011;66443;49.122;8.346;2023-01-29T09:02:49;19.60;;;11.00;;
77384;SDS011;66443;49.122;8.346;2023-01-29T09:05:14;12.37;;;8.47;;
77384;SDS011;66443;49.122;8.346;2023-01-29T09:07:39;12.67;;;7.83;;
77384;SDS011;66443;49.122;8.346;2023-01-29T09:10:05;10.00;;;8.43;;
77384;SDS011;66443;49.122;8.346;2023-01-29T09:12:30;13.70;;;8.57;;
77384;SDS011;66443;49.122;8.346;2023-01-29T09:14:55;13.57;;;10.23;;
77384;SDS011;66443;49.122;8.346;2023-01-29T09:17:20;13.03;;;9.60;;
77384;SDS011;66443;49.122;8.346;2023-01-29T09:19:46;11.77;;;9.47;;
77384;SDS011;66443;49.122;8.346;2023-01-29T09:22:11;11.93;;;8.43;;
77384;SDS011;66443;49.122;8.346;2023-01-29T09:24:36;9.90;;;8.00;;
77384;SDS011;66443;49.122;8.346;2023-01-29T09:27:01;10.97;;;8.10;;
77384;SDS011;66443;49.122;8.346;2023-01-29T09:29:26;10.40;;;8.50;;
77384;SDS011;66443;49.122;8.346;2023-01-29T09:31:52;12.57;;;10.30;;
77384;SDS011;66443;49.122;8.346;2023-01-29T09:34:17;13.25;;;9.52;;
77384;SDS011;66443;49.122;8.346;2023-01-29T09:36:42;11.37;;;9.70;;
77384;SDS011;66443;49.122;8.346;2023-01-29T09:39:07;10.00;;;8.40;;
77384;SDS011;66443;49.122;8.346;2023-01-29T09:43:59;7.55;;;6.65;;
77384;SDS011;66443;49.122;8.346;2023-01-29T09:46:29;7.33;;;6.50;;
77384;SDS011;66443;49.122;8.346;2023-01-29T09:49:01;7.97;;;7.17;;
77384;SDS011;66443;49.122;8.346;2023-01-29T09:51:29;8.10;;;5.93;;
77384;SDS011;66443;49.122;8.346;2023-01-29T09:56:44;9.40;;;8.30;;
77384;SDS011;66443;49.122;8.346;2023-01-29T09:59:10;9.07;;;7.73;;
77384;SDS011;66443;49.122;8.346;2023-01-29T10:01:46;9.03;;;8.10;;
77384;SDS011;66443;49.122;8.346;2023-01-29T10:14:36;7.13;;;6.40;;
77384;SDS011;66443;49.122;8.346;2023-01-29T10:17:12;7.73;;;6.93;;
77384;SDS011;66443;49.122;8.346;2023-01-29T10:22:29;8.10;;;6.50;;
77384;SDS011;66443;49.122;8.346;2023-01-29T10:24:59;11.50;;;7.43;;
77384;SDS011;66443;49.122;8.346;2023-01-29T10:27:29;8.00;;;6.40;;
77384;SDS011;66443;49.122;8.346;2023-01-29T10:29:55;9.47;;;6.93;;
77384;SDS011;66443;49.122;8.346;2023-01-29T10:32:22;8.00;;;7.20;;
77384;SDS011;66443;49.122;8.346;2023-01-29T10:34:51;8.47;;;7.53;;
77384;SDS011;66443;49.122;8.346;2023-01-29T10:37:22;9.07;;;7.67;;
77384;SDS011;66443;49.122;8.346;2023-01-29T10:39:48;7.93;;;7.13;;
77384;SDS011;66443;49.122;8.346;2023-01-29T10:42:19;7.70;;;6.90;;
77384;SDS011;66443;49.122;8.346;2023-01-29T10:55:08;8.63;;;6.70;;
77384;SDS011;66443;49.122;8.346;2023-01-29T11:00:26;6.80;;;6.10;;
77384;SDS011;66443;49.122;8.346;2023-01-29T11:02:52;7.90;;;7.13;;
77384;SDS011;66443;49.122;8.346;2023-01-29T11:08:06;5.83;;;5.27;;
77384;SDS011;66443;49.122;8.346;2023-01-29T11:10:36;6.80;;;6.10;;
77384;SDS011;66443;49.122;8.346;2023-01-29T11:13:04;7.60;;;6.13;;
77384;SDS011;66443;49.122;8.346;2023-01-29T11:15:30;6.93;;;6.33;;
77384;SDS011;66443;49.122;8.346;2023-01-29T11:18:14;6.83;;;6.20;;
77384;SDS011;66443;49.122;8.346;2023-01-29T11:20:43;7.30;;;6.60;;
77384;SDS011;66443;49.122;8.346;2023-01-29T11:26:03;7.40;;;6.10;;
77384;SDS011;66443;49.122;8.346;2023-01-29T11:28:37;5.87;;;5.37;;
77384;SDS011;66443;49.122;8.346;2023-01-29T11:31:02;7.17;;;6.47;;
77384;SDS011;66443;49.122;8.346;2023-01-29T11:33:27;7.27;;;6.53;;
77384;SDS011;66443;49.122;8.346;2023-01-29T11:35:52;5.63;;;5.13;;
77384;SDS011;66443;49.122;8.346;2023-01-29T11:40:48;6.50;;;5.80;;
77384;SDS011;66443;49.122;8.346;2023-01-29T11:45:44;6.73;;;6.03;;
77384;SDS011;66443;49.122;8.346;2023-01-29T11:48:17;7.07;;;6.37;;
77384;SDS011;66443;49.122;8.346;2023-01-29T11:50:42;6.47;;;5.87;;
77384;SDS011;66443;49.122;8.346;2023-01-29T11:55:57;7.30;;;5.50;;
77384;SDS011;66443;49.122;8.346;2023-01-29T11:58:26;5.97;;;5.37;;
77384;SDS011;66443;49.122;8.346;2023-01-29T12:00:53;6.13;;;5.43;;
77384;SDS011;66443;49.122;8.346;2023-01-29T12:05:52;5.88;;;5.28;;
77384;SDS011;66443;49.122;8.346;2023-01-29T12:08:18;6.63;;;6.03;;
77384;SDS011;66443;49.122;8.346;2023-01-29T12:10:45;6.73;;;6.13;;
77384;SDS011;66443;49.122;8.346;2023-01-29T12:15:45;6.67;;;6.03;;
77384;SDS011;66443;49.122;8.346;2023-01-29T12:20:46;6.90;;;6.30;;
77384;SDS011;66443;49.122;8.346;2023-01-29T12:23:26;6.67;;;6.10;;
77384;SDS011;66443;49.122;8.346;2023-01-29T12:26:05;7.03;;;6.43;;
77384;SDS011;66443;49.122;8.346;2023-01-29T12:33:51;6.70;;;6.10;;
77384;SDS011;66443;49.122;8.346;2023-01-29T12:36:23;7.10;;;6.50;;
77384;SDS011;66443;49.122;8.346;2023-01-29T12:38:49;7.40;;;6.70;;
77384;SDS011;66443;49.122;8.346;2023-01-29T12:43:50;8.07;;;7.37;;
77384;SDS011;66443;49.122;8.346;2023-01-29T12:46:19;7.07;;;6.47;;
77384;SDS011;66443;49.122;8.346;2023-01-29T12:48:45;7.20;;;6.60;;
77384;SDS011;66443;49.122;8.346;2023-01-29T12:51:19;6.97;;;6.47;;
77384;SDS011;66443;49.122;8.346;2023-01-29T12:53:50;6.40;;;5.90;;
77384;SDS011;66443;49.122;8.346;2023-01-29T12:56:21;5.87;;;5.20;;
77384;SDS011;66443;49.122;8.346;2023-01-29T12:58:51;6.37;;;5.77;;
77384;SDS011;66443;49.122;8.346;2023-01-29T13:01:33;6.03;;;5.53;;
77384;SDS011;66443;49.122;8.346;2023-01-29T13:04:05;6.07;;;5.67;;
77384;SDS011;66443;49.122;8.346;2023-01-29T13:06:35;6.27;;;5.77;;
77384;SDS011;66443;49.122;8.346;2023-01-29T13:09:06;6.13;;;5.73;;
77384;SDS011;66443;49.122;8.346;2023-01-29T13:11:34;5.77;;;5.33;;
77384;SDS011;66443;49.122;8.346;2023-01-29T13:14:12;6.50;;;6.00;;
77384;SDS011;66443;49.122;8.346;2023-01-29T13:16:40;6.20;;;5.60;;
77384;SDS011;66443;49.122;8.346;2023-01-29T13:21:51;5.93;;;5.33;;
77384;SDS011;66443;49.122;8.346;2023-01-29T13:24:18;5.47;;;5.07;;
77384;SDS011;66443;49.122;8.346;2023-01-29T13:26:45;5.93;;;5.40;;
77384;SDS011;66443;49.122;8.346;2023-01-29T13:29:21;4.90;;;4.50;;
77384;SDS011;66443;49.122;8.346;2023-01-29T13:31:47;5.20;;;4.80;;
77384;SDS011;66443;49.122;8.346;2023-01-29T13:34:14;4.87;;;4.50;;
77384;SDS011;66443;49.122;8.346;2023-01-29T13:36:44;4.67;;;4.27;;
77384;SDS011;66443;49.122;8.346;2023-01-29T13:39:21;4.97;;;4.47;;
77384;SDS011;66443;49.122;8.346;2023-01-29T13:41:47;4.90;;;4.50;;
77384;SDS011;66443;49.122;8.346;2023-01-29T13:44:21;5.13;;;4.73;;
77384;SDS011;66443;49.122;8.346;2023-01-29T13:46:52;5.00;;;4.63;;
77384;SDS011;66443;49.122;8.346;2023-01-29T13:49:26;4.80;;;4.40;;
77384;SDS011;66443;49.122;8.346;2023-01-29T13:51:53;4.90;;;4.50;;
77384;SDS011;66443;49.122;8.346;2023-01-29T13:54:19;5.90;;;5.40;;
77384;SDS011;66443;49.122;8.346;2023-01-29T13:59:23;5.20;;;4.80;;
77384;SDS011;66443;49.122;8.346;2023-01-29T14:04:26;5.13;;;4.72;;
77384;SDS011;66443;49.122;8.346;2023-01-29T14:06:56;5.03;;;4.53;;
77384;SDS011;66443;49.122;8.346;2023-01-29T14:12:03;4.50;;;4.20;;
77384;SDS011;66443;49.122;8.346;2023-01-29T14:17:13;4.70;;;4.40;;
77384;SDS011;66443;49.122;8.346;2023-01-29T14:19:45;5.20;;;4.80;;
77384;SDS011;66443;49.122;8.346;2023-01-29T14:22:17;4.90;;;4.60;;
77384;SDS011;66443;49.122;8.346;2023-01-29T14:24:42;4.83;;;4.53;;
77384;SDS011;66443;49.122;8.346;2023-01-29T14:27:13;5.03;;;4.73;;
77384;SDS011;66443;49.122;8.346;2023-01-29T14:29:39;5.33;;;4.93;;
77384;SDS011;66443;49.122;8.346;2023-01-29T14:34:31;5.45;;;5.05;;
77384;SDS011;66443;49.122;8.346;2023-01-29T14:36:59;5.53;;;5.13;;
77384;SDS011;66443;49.122;8.346;2023-01-29T14:39:30;5.70;;;5.20;;
77384;SDS011;66443;49.122;8.346;2023-01-29T14:41:57;5.43;;;5.03;;
77384;SDS011;66443;49.122;8.346;2023-01-29T14:47:16;6.00;;;5.50;;
77384;SDS011;66443;49.122;8.346;2023-01-29T14:52:13;5.80;;;5.30;;
77384;SDS011;66443;49.122;8.346;2023-01-29T14:54:38;5.97;;;5.47;;
77384;SDS011;66443;49.122;8.346;2023-01-29T14:57:04;5.57;;;5.07;;
77384;SDS011;66443;49.122;8.346;2023-01-29T14:59:33;5.83;;;5.33;;
77384;SDS011;66443;49.122;8.346;2023-01-29T15:04:44;6.20;;;5.60;;
77384;SDS011;66443;49.122;8.346;2023-01-29T15:09:41;7.10;;;6.47;;
77384;SDS011;66443;49.122;8.346;2023-01-29T15:14:40;6.83;;;6.03;;
77384;SDS011;66443;49.122;8.346;2023-01-29T15:19:34;6.30;;;5.70;;
77384;SDS011;66443;49.122;8.346;2023-01-29T15:22:01;6.63;;;6.03;;
77384;SDS011;66443;49.122;8.346;2023-01-29T15:24:26;6.97;;;6.30;;
77384;SDS011;66443;49.122;8.346;2023-01-29T15:26:51;6.97;;;6.25;;
77384;SDS011;66443;49.122;8.346;2023-01-29T15:29:21;7.53;;;6.50;;
77384;SDS011;66443;49.122;8.346;2023-01-29T15:31:46;7.53;;;6.83;;
77384;SDS011;66443;49.122;8.346;2023-01-29T15:34:12;7.97;;;7.10;;
77384;SDS011;66443;49.122;8.346;2023-01-29T15:36:37;6.73;;;6.07;;
77384;SDS011;66443;49.122;8.346;2023-01-29T15:41:34;6.93;;;6.30;;
77384;SDS011;66443;49.122;8.346;2023-01-29T15:44:00;7.20;;;6.53;;
77384;SDS011;66443;49.122;8.346;2023-01-29T15:46:37;7.20;;;6.50;;
77384;SDS011;66443;49.122;8.346;2023-01-29T15:49:08;6.57;;;5.97;;
77384;SDS011;66443;49.122;8.346;2023-01-29T15:51:35;7.50;;;6.80;;
77384;SDS011;66443;49.122;8.346;2023-01-29T15:54:01;7.87;;;6.63;;
77384;SDS011;66443;49.122;8.346;2023-01-29T15:56:28;7.03;;;6.43;;
77384;SDS011;66443;49.122;8.346;2023-01-29T15:58:56;6.90;;;6.20;;
77384;SDS011;66443;49.122;8.346;2023-01-29T16:01:24;7.43;;;6.50;;
77384;SDS011;66443;49.122;8.346;2023-01-29T16:03:49;7.27;;;6.60;;
77384;SDS011;66443;49.122;8.346;2023-01-29T16:06:14;7.63;;;6.47;;
77384;SDS011;66443;49.122;8.346;2023-01-29T16:08:41;8.90;;;8.00;;
77384;SDS011;66443;49.122;8.346;2023-01-29T16:11:07;9.03;;;7.50;;
77384;SDS011;66443;49.122;8.346;2023-01-29T16:13:34;8.93;;;8.03;;
77384;SDS011;66443;49.122;8.346;2023-01-29T16:16:18;9.30;;;7.80;;
77384;SDS011;66443;49.122;8.346;2023-01-29T16:18:44;11.20;;;9.57;;
77384;SDS011;66443;49.122;8.346;2023-01-29T16:21:25;9.33;;;8.43;;
77384;SDS011;66443;49.122;8.346;2023-01-29T16:23:56;9.60;;;7.93;;
77384;SDS011;66443;49.122;8.346;2023-01-29T16:26:30;11.27;;;7.57;;
77384;SDS011;66443;49.122;8.346;2023-01-29T16:28:57;9.13;;;7.67;;
77384;SDS011;66443;49.122;8.346;2023-01-29T16:31:27;8.27;;;7.13;;
77384;SDS011;66443;49.122;8.346;2023-01-29T16:33:53;10.50;;;7.20;;
77384;SDS011;66443;49.122;8.346;2023-01-29T16:36:22;8.97;;;7.43;;
77384;SDS011;66443;49.122;8.346;2023-01-29T16:38:48;9.17;;;7.03;;
77384;SDS011;66443;49.122;8.346;2023-01-29T16:48:42;8.97;;;6.33;;
77384;SDS011;66443;49.122;8.346;2023-01-29T16:51:12;7.77;;;6.20;;
77384;SDS011;66443;49.122;8.346;2023-01-29T16:53:38;8.77;;;6.70;;
77384;SDS011;66443;49.122;8.346;2023-01-29T16:56:04;8.20;;;6.97;;
77384;SDS011;66443;49.122;8.346;2023-01-29T16:58:31;6.93;;;6.10;;
77384;SDS011;66443;49.122;8.346;2023-01-29T17:01:00;7.67;;;6.13;;
77384;SDS011;66443;49.122;8.346;2023-01-29T17:03:26;8.77;;;6.70;;
77384;SDS011;66443;49.122;8.346;2023-01-29T17:05:52;7.83;;;6.47;;
77384;SDS011;66443;49.122;8.346;2023-01-29T17:08:31;7.50;;;6.27;;